sensor_id;sensor_type;location;lat;lon;timestamp;pressure;altitude;pressure_sealevel;temperature;humidity
61484;BME280;47349;55.640;37.692;2022-07-06T00:02:47;99196.50;;;20.68;76.92
61484;BME280;47349;55.640;37.692;2022-07-06T00:07:09;99143.22;;;20.33;76.47
61484;BME280;47349;55.640;37.692;2022-07-06T00:10:04;99154.84;;;20.45;76.75
61484;BME280;47349;55.640;37.692;2022-07-06T00:13:09;99199.75;;;20.65;76.74
61484;BME280;47349;55.640;37.692;2022-07-06T00:16:56;99136.53;;;20.41;76.62
61484;BME280;47349;55.640;37.692;2022-07-06T00:19:45;99176.31;;;20.64;76.58
61484;BME280;47349;55.640;37.692;2022-07-06T00:23:01;99187.91;;;20.76;76.49
61484;BME280;47349;55.640;37.692;2022-07-06T00:26:09;99185.69;;;20.73;76.57
61484;BME280;47349;55.640;37.692;2022-07-06T00:29:02;99187.31;;;20.74;76.47
61484;BME280;47349;55.640;37.692;2022-07-06T00:32:31;99124.03;;;20.45;76.26
61484;BME280;47349;55.640;37.692;2022-07-06T00:35:26;99124.31;;;20.43;75.96
61484;BME280;47349;55.640;37.692;2022-07-06T00:39:15;99105.75;;;20.40;75.97
61484;BME280;47349;55.640;37.692;2022-07-06T00:42:41;99137.13;;;20.65;75.83
61484;BME280;47349;55.640;37.692;2022-07-06T00:46:14;99136.44;;;20.52;76.16
61484;BME280;47349;55.640;37.692;2022-07-06T00:50:22;99176.41;;;20.74;76.20
61484;BME280;47349;55.640;37.692;2022-07-06T00:53:30;99122.06;;;20.40;75.97
61484;BME280;47349;55.640;37.692;2022-07-06T00:57:09;99136.38;;;20.47;75.90
61484;BME280;47349;55.640;37.692;2022-07-06T01:01:24;99185.84;;;20.88;75.69
61484;BME280;47349;55.640;37.692;2022-07-06T01:04:44;99126.69;;;20.57;75.22
61484;BME280;47349;55.640;37.692;2022-07-06T01:08:50;99159.09;;;20.80;75.31
61484;BME280;47349;55.640;37.692;2022-07-06T01:13:09;99132.44;;;20.60;74.98
61484;BME280;47349;55.640;37.692;2022-07-06T01:17:07;99187.63;;;20.99;74.74
61484;BME280;47349;55.640;37.692;2022-07-06T01:20:44;99180.00;;;21.01;74.89
61484;BME280;47349;55.640;37.692;2022-07-06T01:25:01;99119.19;;;20.69;74.46
61484;BME280;47349;55.640;37.692;2022-07-06T01:29:10;99131.09;;;20.85;74.04
61484;BME280;47349;55.640;37.692;2022-07-06T01:33:00;99130.13;;;20.74;74.11
61484;BME280;47349;55.640;37.692;2022-07-06T01:37:02;99133.28;;;20.88;74.17
61484;BME280;47349;55.640;37.692;2022-07-06T01:40:28;99165.34;;;21.08;74.11
61484;BME280;47349;55.640;37.692;2022-07-06T01:44:06;99127.78;;;20.83;73.70
61484;BME280;47349;55.640;37.692;2022-07-06T01:48:16;99133.53;;;20.86;73.87
61484;BME280;47349;55.640;37.692;2022-07-06T01:51:39;99180.75;;;21.19;73.79
61484;BME280;47349;55.640;37.692;2022-07-06T01:55:45;99164.03;;;21.10;73.48
61484;BME280;47349;55.640;37.692;2022-07-06T01:58:52;99131.63;;;20.87;73.31
61484;BME280;47349;55.640;37.692;2022-07-06T02:02:40;99174.72;;;21.17;73.33
61484;BME280;47349;55.640;37.692;2022-07-06T02:06:47;99137.41;;;20.90;73.34
61484;BME280;47349;55.640;37.692;2022-07-06T02:10:42;99185.72;;;21.27;73.31
61484;BME280;47349;55.640;37.692;2022-07-06T02:14:04;99144.28;;;20.98;73.23
61484;BME280;47349;55.640;37.692;2022-07-06T02:18:17;99144.00;;;20.94;73.17
61484;BME280;47349;55.640;37.692;2022-07-06T02:40:55;99162.97;;;21.38;70.95
61484;BME280;47349;55.640;37.692;2022-07-06T02:51:14;99189.28;;;21.54;71.28
61484;BME280;47349;55.640;37.692;2022-07-06T03:04:58;99208.16;;;21.98;70.40
61484;BME280;47349;55.640;37.692;2022-07-06T03:08:38;99166.56;;;21.76;70.64
61484;BME280;47349;55.640;37.692;2022-07-06T03:12:33;99169.31;;;21.81;70.58
61484;BME280;47349;55.640;37.692;2022-07-06T03:16:49;99171.53;;;21.89;74.77
61484;BME280;47349;55.640;37.692;2022-07-06T03:20:28;99200.06;;;22.08;76.24
61484;BME280;47349;55.640;37.692;2022-07-06T03:24:18;99147.19;;;21.77;75.87
61484;BME280;47349;55.640;37.692;2022-07-06T03:29:02;99192.38;;;22.00;76.49
61484;BME280;47349;55.640;37.692;2022-07-06T03:32:22;99177.31;;;21.93;75.42
61484;BME280;47349;55.640;37.692;2022-07-06T03:35:28;99195.69;;;22.07;75.77
61484;BME280;47349;55.640;37.692;2022-07-06T03:39:37;99168.78;;;21.84;75.55
61484;BME280;47349;55.640;37.692;2022-07-06T03:43:27;99175.50;;;22.08;75.26
61484;BME280;47349;55.640;37.692;2022-07-06T03:46:52;99176.13;;;22.16;74.56
61484;BME280;47349;55.640;37.692;2022-07-06T03:51:34;99200.28;;;22.39;74.38
61484;BME280;47349;55.640;37.692;2022-07-06T03:55:36;99145.81;;;22.12;74.19
61484;BME280;47349;55.640;37.692;2022-07-06T03:59:40;99147.72;;;22.12;75.70
61484;BME280;47349;55.640;37.692;2022-07-06T04:08:08;99194.91;;;22.54;73.42
61484;BME280;47349;55.640;37.692;2022-07-06T04:12:02;99198.50;;;22.70;72.85
61484;BME280;47349;55.640;37.692;2022-07-06T04:15:58;99190.03;;;22.67;72.15
61484;BME280;47349;55.640;37.692;2022-07-06T04:19:37;99160.78;;;22.62;71.56
61484;BME280;47349;55.640;37.692;2022-07-06T04:23:19;99171.78;;;22.77;71.92
61484;BME280;47349;55.640;37.692;2022-07-06T04:27:17;99174.75;;;22.76;71.15
61484;BME280;47349;55.640;37.692;2022-07-06T04:30:58;99200.56;;;23.00;72.06
61484;BME280;47349;55.640;37.692;2022-07-06T04:34:31;99195.66;;;23.07;71.47
61484;BME280;47349;55.640;37.692;2022-07-06T04:38:30;99164.19;;;22.95;70.52
61484;BME280;47349;55.640;37.692;2022-07-06T04:42:54;99190.50;;;23.26;70.00
61484;BME280;47349;55.640;37.692;2022-07-06T04:45:59;99149.75;;;23.15;69.79
61484;BME280;47349;55.640;37.692;2022-07-06T04:50:26;99198.75;;;23.52;70.18
61484;BME280;47349;55.640;37.692;2022-07-06T04:53:55;99153.31;;;23.30;70.27
61484;BME280;47349;55.640;37.692;2022-07-06T04:57:33;99194.38;;;23.61;70.20
61484;BME280;47349;55.640;37.692;2022-07-06T05:00:41;99153.34;;;23.36;70.00
61484;BME280;47349;55.640;37.692;2022-07-06T05:03:40;99145.97;;;23.41;68.80
61484;BME280;47349;55.640;37.692;2022-07-06T05:07:33;99142.66;;;23.49;67.36
61484;BME280;47349;55.640;37.692;2022-07-06T05:10:55;99161.84;;;23.80;67.64
61484;BME280;47349;55.640;37.692;2022-07-06T05:14:05;99143.25;;;23.67;66.88
61484;BME280;47349;55.640;37.692;2022-07-06T05:17:23;99141.03;;;23.69;66.17
61484;BME280;47349;55.640;37.692;2022-07-06T05:21:20;99118.63;;;23.67;66.73
61484;BME280;47349;55.640;37.692;2022-07-06T05:25:05;99148.66;;;23.97;65.56
61484;BME280;47349;55.640;37.692;2022-07-06T05:27:59;99112.00;;;23.83;64.74
61484;BME280;47349;55.640;37.692;2022-07-06T05:31:15;99146.47;;;24.09;64.04
61484;BME280;47349;55.640;37.692;2022-07-06T05:35:41;99156.25;;;24.41;63.55
61484;BME280;47349;55.640;37.692;2022-07-06T05:39:33;99131.06;;;24.39;64.36
61484;BME280;47349;55.640;37.692;2022-07-06T05:42:27;99147.44;;;24.49;65.06
61484;BME280;47349;55.640;37.692;2022-07-06T05:46:06;99150.16;;;24.54;63.93
61484;BME280;47349;55.640;37.692;2022-07-06T05:48:56;99145.75;;;24.64;63.50
61484;BME280;47349;55.640;37.692;2022-07-06T05:52:11;99150.69;;;24.61;63.51
61484;BME280;47349;55.640;37.692;2022-07-06T05:55:17;99128.78;;;24.61;63.37
61484;BME280;47349;55.640;37.692;2022-07-06T05:58:28;99175.44;;;25.01;63.86
61484;BME280;47349;55.640;37.692;2022-07-06T06:00:58;99176.81;;;24.98;63.89
61484;BME280;47349;55.640;37.692;2022-07-06T06:04:49;99150.53;;;24.92;61.91
61484;BME280;47349;55.640;37.692;2022-07-06T06:07:47;99141.28;;;24.78;62.38
61484;BME280;47349;55.640;37.692;2022-07-06T06:11:09;99144.16;;;25.02;62.64
61484;BME280;47349;55.640;37.692;2022-07-06T06:13:40;99129.06;;;25.04;62.23
61484;BME280;47349;55.640;37.692;2022-07-06T06:16:35;99149.03;;;25.20;62.32
61484;BME280;47349;55.640;37.692;2022-07-06T06:19:31;99170.25;;;25.44;62.95
61484;BME280;47349;55.640;37.692;2022-07-06T06:22:20;99154.66;;;25.39;63.41
61484;BME280;47349;55.640;37.692;2022-07-06T06:24:56;99165.19;;;25.56;63.36
61484;BME280;47349;55.640;37.692;2022-07-06T06:27:51;99159.38;;;25.62;63.42
61484;BME280;47349;55.640;37.692;2022-07-06T06:30:40;99138.97;;;25.45;63.36
61484;BME280;47349;55.640;37.692;2022-07-06T06:33:24;99140.25;;;25.52;63.99
61484;BME280;47349;55.640;37.692;2022-07-06T06:36:51;99151.69;;;25.64;64.39
61484;BME280;47349;55.640;37.692;2022-07-06T06:39:19;99130.34;;;25.56;65.47
61484;BME280;47349;55.640;37.692;2022-07-06T06:41:49;99156.56;;;25.73;65.43
61484;BME280;47349;55.640;37.692;2022-07-06T06:44:17;99163.66;;;25.79;65.73
61484;BME280;47349;55.640;37.692;2022-07-06T06:46:53;99154.88;;;25.77;66.21
61484;BME280;47349;55.640;37.692;2022-07-06T06:49:24;99126.13;;;25.69;65.47
61484;BME280;47349;55.640;37.692;2022-07-06T06:51:53;99120.03;;;25.72;65.32
61484;BME280;47349;55.640;37.692;2022-07-06T06:54:53;99133.88;;;25.91;64.89
61484;BME280;47349;55.640;37.692;2022-07-06T06:57:37;99126.19;;;25.93;65.09
61484;BME280;47349;55.640;37.692;2022-07-06T07:00:07;99142.22;;;26.10;64.42
61484;BME280;47349;55.640;37.692;2022-07-06T07:03:08;99120.91;;;26.02;63.11
61484;BME280;47349;55.640;37.692;2022-07-06T07:06:00;99136.31;;;26.22;62.94
61484;BME280;47349;55.640;37.692;2022-07-06T07:09:01;99154.84;;;26.35;61.44
61484;BME280;47349;55.640;37.692;2022-07-06T07:11:46;99169.03;;;26.47;61.69
61484;BME280;47349;55.640;37.692;2022-07-06T07:14:36;99126.78;;;26.38;59.63
61484;BME280;47349;55.640;37.692;2022-07-06T07:17:58;99166.44;;;26.80;58.68
61484;BME280;47349;55.640;37.692;2022-07-06T07:20:53;99121.28;;;26.62;58.17
61484;BME280;47349;55.640;37.692;2022-07-06T07:23:35;99153.66;;;26.89;58.32
61484;BME280;47349;55.640;37.692;2022-07-06T07:26:45;99143.44;;;26.71;58.06
61484;BME280;47349;55.640;37.692;2022-07-06T07:29:29;99151.78;;;26.84;57.53
61484;BME280;47349;55.640;37.692;2022-07-06T07:32:10;99137.81;;;26.81;57.52
61484;BME280;47349;55.640;37.692;2022-07-06T07:34:58;99156.44;;;27.08;56.13
61484;BME280;47349;55.640;37.692;2022-07-06T07:37:39;99144.06;;;27.05;55.84
61484;BME280;47349;55.640;37.692;2022-07-06T07:40:08;99144.91;;;27.25;55.59
61484;BME280;47349;55.640;37.692;2022-07-06T07:42:38;99122.75;;;27.16;55.50
61484;BME280;47349;55.640;37.692;2022-07-06T07:45:29;99122.81;;;27.11;55.33
61484;BME280;47349;55.640;37.692;2022-07-06T07:48:15;99125.38;;;27.40;55.22
61484;BME280;47349;55.640;37.692;2022-07-06T07:51:23;99111.03;;;27.43;54.51
61484;BME280;47349;55.640;37.692;2022-07-06T07:54:04;99124.03;;;27.56;54.56
61484;BME280;47349;55.640;37.692;2022-07-06T07:56:41;99108.88;;;27.40;53.95
61484;BME280;47349;55.640;37.692;2022-07-06T07:59:10;99128.91;;;27.59;55.25
61484;BME280;47349;55.640;37.692;2022-07-06T08:01:38;99111.47;;;27.50;55.81
61484;BME280;47349;55.640;37.692;2022-07-06T08:04:08;99134.72;;;27.77;55.49
61484;BME280;47349;55.640;37.692;2022-07-06T08:06:36;99138.41;;;27.86;55.37
61484;BME280;47349;55.640;37.692;2022-07-06T08:10:13;99112.59;;;27.82;55.45
61484;BME280;47349;55.640;37.692;2022-07-06T08:12:54;99103.72;;;27.85;56.25
61484;BME280;47349;55.640;37.692;2022-07-06T08:15:23;99111.72;;;28.00;55.61
61484;BME280;47349;55.640;37.692;2022-07-06T08:17:52;99146.91;;;28.03;55.83
61484;BME280;47349;55.640;37.692;2022-07-06T08:20:20;99121.34;;;27.84;55.94
61484;BME280;47349;55.640;37.692;2022-07-06T08:22:49;99115.59;;;27.66;56.18
61484;BME280;47349;55.640;37.692;2022-07-06T08:25:36;99148.22;;;27.92;55.78
61484;BME280;47349;55.640;37.692;2022-07-06T08:28:04;99124.06;;;27.70;56.50
61484;BME280;47349;55.640;37.692;2022-07-06T08:30:31;99113.72;;;27.48;56.34
61484;BME280;47349;55.640;37.692;2022-07-06T08:33:03;99132.88;;;27.72;56.32
61484;BME280;47349;55.640;37.692;2022-07-06T08:35:59;99120.72;;;27.73;55.88
61484;BME280;47349;55.640;37.692;2022-07-06T08:38:29;99140.63;;;27.84;55.70
61484;BME280;47349;55.640;37.692;2022-07-06T08:40:57;99150.97;;;27.92;55.66
61484;BME280;47349;55.640;37.692;2022-07-06T08:44:02;99110.75;;;27.77;55.59
61484;BME280;47349;55.640;37.692;2022-07-06T08:47:23;99111.00;;;27.62;53.74
61484;BME280;47349;55.640;37.692;2022-07-06T08:49:55;99114.38;;;27.40;53.22
61484;BME280;47349;55.640;37.692;2022-07-06T08:52:27;99139.56;;;27.66;53.03
61484;BME280;47349;55.640;37.692;2022-07-06T08:54:55;99092.53;;;27.30;53.24
61484;BME280;47349;55.640;37.692;2022-07-06T08:57:48;99118.69;;;27.79;52.18
61484;BME280;47349;55.640;37.692;2022-07-06T09:01:38;99089.25;;;27.93;52.89
61484;BME280;47349;55.640;37.692;2022-07-06T09:04:22;99116.38;;;28.13;52.63
61484;BME280;47349;55.640;37.692;2022-07-06T09:07:14;99102.31;;;28.15;50.90
61484;BME280;47349;55.640;37.692;2022-07-06T09:10:34;99096.94;;;28.37;51.92
61484;BME280;47349;55.640;37.692;2022-07-06T09:13:19;99091.47;;;28.32;52.10
61484;BME280;47349;55.640;37.692;2022-07-06T09:15:50;99077.59;;;28.24;51.83
61484;BME280;47349;55.640;37.692;2022-07-06T09:18:53;99136.31;;;28.65;51.48
61484;BME280;47349;55.640;37.692;2022-07-06T09:22:25;99087.03;;;28.36;51.55
61484;BME280;47349;55.640;37.692;2022-07-06T09:24:53;99123.94;;;28.77;52.07
61484;BME280;47349;55.640;37.692;2022-07-06T09:27:28;99101.47;;;28.69;53.08
61484;BME280;47349;55.640;37.692;2022-07-06T09:30:09;99092.97;;;28.80;49.84
61484;BME280;47349;55.640;37.692;2022-07-06T09:32:40;99117.38;;;29.00;49.14
61484;BME280;47349;55.640;37.692;2022-07-06T09:35:25;99106.94;;;29.11;47.93
61484;BME280;47349;55.640;37.692;2022-07-06T09:38:07;99089.59;;;28.97;47.77
61484;BME280;47349;55.640;37.692;2022-07-06T09:40:45;99104.25;;;29.06;47.74
61484;BME280;47349;55.640;37.692;2022-07-06T09:43:23;99072.94;;;28.88;46.55
61484;BME280;47349;55.640;37.692;2022-07-06T09:45:55;99093.97;;;29.20;46.18
61484;BME280;47349;55.640;37.692;2022-07-06T09:48:27;99079.97;;;28.94;46.90
61484;BME280;47349;55.640;37.692;2022-07-06T09:50:58;99103.06;;;28.98;47.53
61484;BME280;47349;55.640;37.692;2022-07-06T09:53:27;99106.66;;;28.99;48.33
61484;BME280;47349;55.640;37.692;2022-07-06T09:55:56;99093.25;;;28.92;48.70
61484;BME280;47349;55.640;37.692;2022-07-06T09:58:50;99071.59;;;28.85;48.57
61484;BME280;47349;55.640;37.692;2022-07-06T10:01:30;99077.50;;;29.06;48.76
61484;BME280;47349;55.640;37.692;2022-07-06T10:03:58;99076.88;;;29.32;50.03
61484;BME280;47349;55.640;37.692;2022-07-06T10:06:25;99068.06;;;29.52;49.44
61484;BME280;47349;55.640;37.692;2022-07-06T10:08:55;99095.34;;;29.76;49.36
61484;BME280;47349;55.640;37.692;2022-07-06T10:11:25;99047.38;;;29.41;49.11
61484;BME280;47349;55.640;37.692;2022-07-06T10:13:57;99070.53;;;29.85;49.91
61484;BME280;47349;55.640;37.692;2022-07-06T10:16:26;99058.69;;;29.93;49.20
61484;BME280;47349;55.640;37.692;2022-07-06T10:19:17;99082.44;;;29.94;49.04
61484;BME280;47349;55.640;37.692;2022-07-06T10:21:45;99059.91;;;29.69;49.32
61484;BME280;47349;55.640;37.692;2022-07-06T10:24:22;99085.59;;;29.70;50.06
61484;BME280;47349;55.640;37.692;2022-07-06T10:26:56;99083.63;;;29.48;50.54
61484;BME280;47349;55.640;37.692;2022-07-06T10:29:27;99042.75;;;29.05;51.31
61484;BME280;47349;55.640;37.692;2022-07-06T10:32:05;99033.09;;;29.16;51.13
61484;BME280;47349;55.640;37.692;2022-07-06T10:34:36;99039.16;;;29.27;50.57
61484;BME280;47349;55.640;37.692;2022-07-06T10:37:26;99039.38;;;29.31;50.12
61484;BME280;47349;55.640;37.692;2022-07-06T10:39:54;99059.94;;;29.78;50.33
61484;BME280;47349;55.640;37.692;2022-07-06T10:42:45;99044.53;;;29.86;49.67
61484;BME280;47349;55.640;37.692;2022-07-06T10:50:54;99071.59;;;30.06;47.53
61484;BME280;47349;55.640;37.692;2022-07-06T10:53:34;99032.72;;;29.94;47.95
61484;BME280;47349;55.640;37.692;2022-07-06T10:56:42;99066.78;;;30.20;46.30
61484;BME280;47349;55.640;37.692;2022-07-06T10:59:24;99070.44;;;29.99;45.98
61484;BME280;47349;55.640;37.692;2022-07-06T11:05:02;99080.16;;;30.27;46.53
61484;BME280;47349;55.640;37.692;2022-07-06T11:07:53;99044.47;;;30.08;46.66
61484;BME280;47349;55.640;37.692;2022-07-06T11:10:46;99028.44;;;29.88;45.41
61484;BME280;47349;55.640;37.692;2022-07-06T11:13:47;99039.47;;;30.19;46.90
61484;BME280;47349;55.640;37.692;2022-07-06T11:16:31;99038.69;;;29.87;46.14
61484;BME280;47349;55.640;37.692;2022-07-06T11:19:33;99032.09;;;29.66;46.85
61484;BME280;47349;55.640;37.692;2022-07-06T11:22:08;99040.44;;;29.52;47.78
61484;BME280;47349;55.640;37.692;2022-07-06T11:24:39;99020.25;;;29.43;48.00
61484;BME280;47349;55.640;37.692;2022-07-06T11:27:12;99036.16;;;29.68;47.70
61484;BME280;47349;55.640;37.692;2022-07-06T11:30:08;99059.91;;;30.09;47.38
61484;BME280;47349;55.640;37.692;2022-07-06T11:32:41;99008.50;;;30.00;47.15
61484;BME280;47349;55.640;37.692;2022-07-06T11:35:33;99044.91;;;30.50;46.74
61484;BME280;47349;55.640;37.692;2022-07-06T11:38:25;99044.44;;;30.65;46.04
61484;BME280;47349;55.640;37.692;2022-07-06T11:40:57;99005.84;;;30.34;46.12
61484;BME280;47349;55.640;37.692;2022-07-06T11:43:49;99036.16;;;30.83;46.36
61484;BME280;47349;55.640;37.692;2022-07-06T11:46:54;99047.22;;;31.43;45.80
61484;BME280;47349;55.640;37.692;2022-07-06T11:50:07;99058.00;;;31.92;44.66
61484;BME280;47349;55.640;37.692;2022-07-06T11:52:38;99013.28;;;31.55;43.81
61484;BME280;47349;55.640;37.692;2022-07-06T11:55:14;99027.78;;;31.99;42.01
61484;BME280;47349;55.640;37.692;2022-07-06T11:57:41;99014.16;;;31.77;42.29
61484;BME280;47349;55.640;37.692;2022-07-06T12:00:10;98995.91;;;31.84;41.62
61484;BME280;47349;55.640;37.692;2022-07-06T12:02:38;99028.22;;;32.10;41.90
61484;BME280;47349;55.640;37.692;2022-07-06T12:05:10;98992.91;;;31.98;42.04
61484;BME280;47349;55.640;37.692;2022-07-06T12:08:04;99030.72;;;32.03;42.14
61484;BME280;47349;55.640;37.692;2022-07-06T12:10:36;99006.34;;;31.87;42.71
61484;BME280;47349;55.640;37.692;2022-07-06T12:13:04;99007.59;;;31.52;43.62
61484;BME280;47349;55.640;37.692;2022-07-06T12:15:33;99017.09;;;31.25;42.82
61484;BME280;47349;55.640;37.692;2022-07-06T12:18:13;98992.06;;;30.78;42.70
61484;BME280;47349;55.640;37.692;2022-07-06T12:20:45;98992.34;;;30.50;43.65
61484;BME280;47349;55.640;37.692;2022-07-06T12:23:26;98984.22;;;30.28;43.84
61484;BME280;47349;55.640;37.692;2022-07-06T12:25:55;98994.78;;;30.26;44.69
61484;BME280;47349;55.640;37.692;2022-07-06T12:28:29;98976.78;;;29.88;45.97
61484;BME280;47349;55.640;37.692;2022-07-06T12:31:30;98987.88;;;30.06;45.21
61484;BME280;47349;55.640;37.692;2022-07-06T12:34:02;99002.41;;;29.72;45.24
61484;BME280;47349;55.640;37.692;2022-07-06T12:36:55;99004.88;;;29.82;45.10
61484;BME280;47349;55.640;37.692;2022-07-06T12:39:31;98982.31;;;29.97;44.63
61484;BME280;47349;55.640;37.692;2022-07-06T12:42:17;99016.72;;;30.31;44.63
61484;BME280;47349;55.640;37.692;2022-07-06T12:44:57;99032.25;;;30.84;43.96
61484;BME280;47349;55.640;37.692;2022-07-06T12:47:25;99013.38;;;30.94;44.27
61484;BME280;47349;55.640;37.692;2022-07-06T12:50:12;99017.28;;;30.93;43.31
61484;BME280;47349;55.640;37.692;2022-07-06T12:52:40;99007.47;;;31.22;42.70
61484;BME280;47349;55.640;37.692;2022-07-06T12:55:09;99012.84;;;31.36;42.32
61484;BME280;47349;55.640;37.692;2022-07-06T12:57:59;99010.22;;;31.48;42.56
61484;BME280;47349;55.640;37.692;2022-07-06T13:00:44;98990.53;;;31.32;42.91
61484;BME280;47349;55.640;37.692;2022-07-06T13:03:18;99009.09;;;31.40;42.60
61484;BME280;47349;55.640;37.692;2022-07-06T13:05:52;98981.00;;;30.95;43.14
61484;BME280;47349;55.640;37.692;2022-07-06T13:08:53;99011.56;;;31.07;41.88
61484;BME280;47349;55.640;37.692;2022-07-06T13:11:20;98990.06;;;31.04;41.91
61484;BME280;47349;55.640;37.692;2022-07-06T13:13:52;98971.03;;;31.03;41.01
61484;BME280;47349;55.640;37.692;2022-07-06T13:16:24;98975.88;;;31.32;41.38
61484;BME280;47349;55.640;37.692;2022-07-06T13:18:57;98976.84;;;31.18;41.27
61484;BME280;47349;55.640;37.692;2022-07-06T13:21:36;99001.22;;;31.51;41.46
61484;BME280;47349;55.640;37.692;2022-07-06T13:24:05;99004.69;;;31.48;41.43
61484;BME280;47349;55.640;37.692;2022-07-06T13:26:33;98973.94;;;31.15;42.06
61484;BME280;47349;55.640;37.692;2022-07-06T13:29:03;98990.06;;;31.13;42.65
61484;BME280;47349;55.640;37.692;2022-07-06T13:31:34;98992.53;;;30.97;43.32
61484;BME280;47349;55.640;37.692;2022-07-06T13:34:02;98984.88;;;31.03;43.39
61484;BME280;47349;55.640;37.692;2022-07-06T13:36:32;98988.53;;;31.50;42.66
61484;BME280;47349;55.640;37.692;2022-07-06T13:39:01;98981.22;;;31.92;42.18
61484;BME280;47349;55.640;37.692;2022-07-06T13:41:30;98959.34;;;32.20;41.93
61484;BME280;47349;55.640;37.692;2022-07-06T13:44:12;98950.63;;;32.31;40.96
61484;BME280;47349;55.640;37.692;2022-07-06T13:46:49;98970.59;;;32.66;40.59
61484;BME280;47349;55.640;37.692;2022-07-06T13:49:33;98958.97;;;32.52;41.11
61484;BME280;47349;55.640;37.692;2022-07-06T13:52:01;98972.38;;;32.49;40.87
61484;BME280;47349;55.640;37.692;2022-07-06T13:54:32;98982.44;;;32.54;40.13
61484;BME280;47349;55.640;37.692;2022-07-06T13:57:15;98971.63;;;32.40;40.43
61484;BME280;47349;55.640;37.692;2022-07-06T13:59:43;98988.53;;;32.47;40.54
61484;BME280;47349;55.640;37.692;2022-07-06T14:02:10;98946.84;;;32.35;40.65
61484;BME280;47349;55.640;37.692;2022-07-06T14:04:44;98992.81;;;32.45;40.58
61484;BME280;47349;55.640;37.692;2022-07-06T14:07:21;98981.78;;;32.28;40.90
61484;BME280;47349;55.640;37.692;2022-07-06T14:09:51;98965.47;;;32.05;41.21
61484;BME280;47349;55.640;37.692;2022-07-06T14:12:29;98968.13;;;32.22;41.07
61484;BME280;47349;55.640;37.692;2022-07-06T14:15:08;98944.78;;;32.23;41.08
61484;BME280;47349;55.640;37.692;2022-07-06T14:17:49;98945.91;;;32.52;41.25
61484;BME280;47349;55.640;37.692;2022-07-06T14:20:18;98947.09;;;32.63;40.93
61484;BME280;47349;55.640;37.692;2022-07-06T14:22:52;98943.94;;;32.53;41.48
61484;BME280;47349;55.640;37.692;2022-07-06T14:25:21;98949.75;;;32.39;41.38
61484;BME280;47349;55.640;37.692;2022-07-06T14:27:49;98947.16;;;32.13;42.07
61484;BME280;47349;55.640;37.692;2022-07-06T14:30:24;98995.72;;;31.81;43.78
61484;BME280;47349;55.640;37.692;2022-07-06T14:33:03;98956.84;;;31.04;44.14
61484;BME280;47349;55.640;37.692;2022-07-06T14:35:50;98966.66;;;30.67;45.09
61484;BME280;47349;55.640;37.692;2022-07-06T14:38:45;98983.91;;;30.38;46.05
61484;BME280;47349;55.640;37.692;2022-07-06T14:41:27;98970.00;;;30.12;46.02
61484;BME280;47349;55.640;37.692;2022-07-06T14:43:55;98958.78;;;30.08;46.23
61484;BME280;47349;55.640;37.692;2022-07-06T14:46:24;98931.69;;;30.45;45.91
61484;BME280;47349;55.640;37.692;2022-07-06T14:48:51;98962.72;;;31.11;45.03
61484;BME280;47349;55.640;37.692;2022-07-06T14:51:19;98933.75;;;31.56;44.16
61484;BME280;47349;55.640;37.692;2022-07-06T14:54:01;98945.94;;;32.02;42.83
61484;BME280;47349;55.640;37.692;2022-07-06T14:56:56;98941.59;;;32.34;42.49
61484;BME280;47349;55.640;37.692;2022-07-06T14:59:23;98946.19;;;32.59;42.31
61484;BME280;47349;55.640;37.692;2022-07-06T15:02:15;98923.50;;;32.57;42.05
61484;BME280;47349;55.640;37.692;2022-07-06T15:04:57;98952.63;;;32.84;41.21
61484;BME280;47349;55.640;37.692;2022-07-06T15:07:35;98909.78;;;32.73;41.50
61484;BME280;47349;55.640;37.692;2022-07-06T15:10:06;98938.59;;;33.02;40.98
61484;BME280;47349;55.640;37.692;2022-07-06T15:12:40;98941.72;;;33.00;40.89
61484;BME280;47349;55.640;37.692;2022-07-06T15:15:12;98910.47;;;32.91;40.08
61484;BME280;47349;55.640;37.692;2022-07-06T15:18:04;98912.81;;;33.01;40.27
61484;BME280;47349;55.640;37.692;2022-07-06T15:20:47;98922.22;;;32.88;41.12
61484;BME280;47349;55.640;37.692;2022-07-06T15:23:33;98899.25;;;32.66;40.85
61484;BME280;47349;55.640;37.692;2022-07-06T15:26:22;98922.97;;;32.64;41.19
61484;BME280;47349;55.640;37.692;2022-07-06T15:29:08;98922.81;;;32.39;42.40
61484;BME280;47349;55.640;37.692;2022-07-06T15:31:50;98899.72;;;31.85;43.07
61484;BME280;47349;55.640;37.692;2022-07-06T15:34:35;98923.75;;;31.72;43.17
61484;BME280;47349;55.640;37.692;2022-07-06T15:37:08;98925.09;;;31.57;43.16
61484;BME280;47349;55.640;37.692;2022-07-06T15:39:37;98932.19;;;31.37;43.97
61484;BME280;47349;55.640;37.692;2022-07-06T15:42:04;98925.44;;;31.09;44.67
61484;BME280;47349;55.640;37.692;2022-07-06T15:44:34;98896.38;;;30.77;44.94
61484;BME280;47349;55.640;37.692;2022-07-06T15:47:07;98902.72;;;30.77;45.44
61484;BME280;47349;55.640;37.692;2022-07-06T15:49:42;98945.31;;;31.11;45.50
61484;BME280;47349;55.640;37.692;2022-07-06T15:52:15;98921.81;;;31.17;45.51
61484;BME280;47349;55.640;37.692;2022-07-06T15:54:53;98940.50;;;31.37;45.65
61484;BME280;47349;55.640;37.692;2022-07-06T15:57:25;98916.13;;;31.31;45.37
61484;BME280;47349;55.640;37.692;2022-07-06T15:59:58;98900.50;;;31.17;46.19
61484;BME280;47349;55.640;37.692;2022-07-06T16:02:37;98912.88;;;31.11;46.20
61484;BME280;47349;55.640;37.692;2022-07-06T16:05:20;98932.69;;;31.39;46.35
61484;BME280;47349;55.640;37.692;2022-07-06T16:08:07;98907.63;;;31.36;46.07
61484;BME280;47349;55.640;37.692;2022-07-06T16:10:54;98927.00;;;31.36;45.80
61484;BME280;47349;55.640;37.692;2022-07-06T16:13:23;98915.47;;;31.16;45.90
61484;BME280;47349;55.640;37.692;2022-07-06T16:15:54;98933.69;;;31.35;46.30